Eishun — JD2292 — position and weather

sailwx.info

Track history (hours):
 
Tides and Currents Weather Stations Pressure Air Temp Water Temp Dewpoint Dewpoint Depression Visibility Wind Speed Wind Dir Waves Ship Positions

Eishun

Last reported at 2017-Dec-17 04:00 UTC. Time now 2017-Dec-17 04:21 UTC.
Position N 33°58' E 130°59'.

Length 40 m; draft 4.2 m.

Type: Tug. MMSI: 431602341.

Date/timePositionNaut miles runAvg speedWind from/ knotsBaromVisibWave heightAir tempDewpointWater temp
2017-Dec-17 04:00N 33°58' E 130°59'0 0.2
2017-Dec-17 03:30N 33°58' E 130°59'1 2.6
2017-Dec-17 03:00N 33°58' E 131°00'0 0.5
2017-Dec-17 02:30N 33°58' E 131°00'2 3.5
2017-Dec-17 02:00N 33°58' E 130°58'2 4.4
2017-Dec-17 01:30N 33°56' E 130°56'1 2.8
2017-Dec-17 01:00N 33°57' E 130°58'0 0.0
2017-Dec-17 00:30N 33°57' E 130°58'0 0.0
2017-Dec-17 00:00N 33°57' E 130°58'0 0.0
2017-Dec-16 23:30N 33°57' E 130°58'3 5.0
2017-Dec-16 23:01N 33°58' E 131°00'1 1.5
2017-Dec-16 22:30N 33°58' E 131°01'3 5.1
2017-Dec-16 22:00N 33°58' E 130°58'1 0.1
2017-Dec-16 02:45N 33°57' E 130°58'1 3.9
2017-Dec-16 02:30N 33°58' E 130°58'1 1.3
2017-Dec-16 02:00N 33°58' E 130°59'1 2.4
2017-Dec-16 01:30N 33°57' E 130°57'0 0.6
2017-Dec-16 01:00N 33°57' E 130°58'0 0.0
2017-Dec-16 00:30N 33°57' E 130°58'0 0.0
2017-Dec-16 00:00N 33°57' E 130°58'2 5.0
2017-Dec-15 23:31N 33°58' E 131°00'2 3.0
2017-Dec-15 23:00N 33°58' E 130°58'1 0.1
2017-Dec-15 08:54N 33°57' E 130°58'3 6.4
2017-Dec-15 08:30N 33°58' E 131°00'2 4.8
2017-Dec-15 08:00N 33°57' E 130°58'1 1.1
2017-Dec-15 07:30N 33°57' E 130°58'0 0.0
2017-Dec-15 02:30N 33°57' E 130°58'0 0.0
2017-Dec-15 01:00N 33°57' E 130°58'1 2.2
2017-Dec-15 00:31N 33°56' E 130°57'1 0.1
2017-Dec-14 07:16N 33°57' E 130°58'0 0.0
2017-Dec-14 07:00N 33°57' E 130°58'0 0.0
2017-Dec-14 06:30N 33°57' E 130°58'0 0.0
2017-Dec-14 06:00N 33°57' E 130°58'0 0.0
2017-Dec-14 05:30N 33°57' E 130°58'0 0.0
2017-Dec-14 05:00N 33°57' E 130°58'3 5.0
2017-Dec-14 04:30N 33°58' E 131°00'0 0.7
2017-Dec-14 04:00N 33°58' E 131°01'1 2.5
2017-Dec-14 03:31N 33°57' E 131°02'3 5.8
2017-Dec-14 03:00N 33°58' E 130°58'1 2.7
2017-Dec-14 02:30N 33°57' E 130°58'0 0.0
2017-Dec-14 02:00N 33°57' E 130°58'0 0.0
2017-Dec-14 01:30N 33°57' E 130°58'0 0.0
2017-Dec-14 01:00N 33°57' E 130°58'0 0.0
2017-Dec-14 00:30N 33°57' E 130°58'0 0.0
2017-Dec-14 00:00N 33°57' E 130°58'0 0.0
2017-Dec-13 23:30N 33°57' E 130°58'0 0.0
2017-Dec-13 23:00N 33°57' E 130°58'0 0.0
2017-Dec-13 09:53N 33°57' E 130°58'2 5.0
2017-Dec-13 09:31N 33°58' E 130°59'1 1.6
2017-Dec-13 09:00N 33°58' E 130°58'1 2.1
2017-Dec-13 08:30N 33°57' E 130°58'0 0.0
2017-Dec-13 08:00N 33°57' E 130°58'0 0.0
2017-Dec-13 07:30N 33°57' E 130°58'0 0.0
2017-Dec-13 07:01N 33°57' E 130°58'0 0.0
2017-Dec-13 06:30N 33°57' E 130°58'0 0.0
2017-Dec-13 06:00N 33°57' E 130°58'0 0.0
2017-Dec-13 05:31N 33°57' E 130°58'0 0.0
2017-Dec-13 05:00N 33°57' E 130°58'0 0.0
2017-Dec-13 04:30N 33°57' E 130°58'0 0.0
2017-Dec-13 04:01N 33°57' E 130°58'0 0.0
2017-Dec-13 03:30N 33°57' E 130°58'0 0.0
2017-Dec-13 03:00N 33°57' E 130°58'0 0.0
2017-Dec-13 02:30N 33°57' E 130°58'0 0.0
2017-Dec-13 02:00N 33°57' E 130°58'0 0.0
2017-Dec-13 01:30N 33°57' E 130°58'0 0.0
2017-Dec-13 01:01N 33°57' E 130°58'1 2.2
2017-Dec-13 00:30N 33°56' E 130°57'0 0.8
2017-Dec-13 00:00N 33°56' E 130°56'0 1.0
2017-Dec-12 23:30N 33°56' E 130°57'0 0.0
2017-Dec-12 23:00N 33°56' E 130°57'1 1.2
2017-Dec-12 22:30N 33°57' E 130°57'2 3.2
2017-Dec-12 22:00N 33°58' E 130°58'1 2.7
2017-Dec-12 21:31N 33°58' E 131°00'2 4.8
2017-Dec-12 21:00N 33°57' E 130°58'0 0.0
2017-Dec-11 12:11N 33°57' E 130°58'0 0.0
2017-Dec-11 12:01N 33°57' E 130°58'1 1.4
2017-Dec-11 11:30N 33°57' E 130°57'1 0.2
2017-Dec-11 07:18N 33°57' E 130°58'0 0.0
2017-Dec-11 07:00N 33°57' E 130°58'0 0.0
2017-Dec-11 06:31N 33°57' E 130°58'0 0.0
2017-Dec-11 06:01N 33°57' E 130°58'0 0.0
2017-Dec-11 05:31N 33°57' E 130°58'0 0.0
2017-Dec-11 05:01N 33°57' E 130°58'0 0.0
2017-Dec-11 04:31N 33°57' E 130°58'0 0.0
2017-Dec-11 04:00N 33°57' E 130°58'0 0.0
2017-Dec-11 03:31N 33°57' E 130°58'0 0.0
2017-Dec-11 03:01N 33°57' E 130°58'0 0.0
2017-Dec-11 02:30N 33°57' E 130°58'0 0.0
2017-Dec-11 02:01N 33°57' E 130°58'3 5.2
2017-Dec-11 01:31N 33°58' E 131°00'0 0.6
2017-Dec-11 01:01N 33°58' E 131°01'0 0.3
2017-Dec-11 00:30N 33°58' E 131°00'0 0.5
2017-Dec-11 00:01N 33°58' E 131°01'0 0.0
2017-Dec-10 23:30N 33°58' E 131°01'1 1.0
2017-Dec-10 23:00N 33°58' E 131°00'1 2.0
2017-Dec-10 22:30N 33°58' E 130°59'2 3.5
2017-Dec-10 22:01N 33°57' E 130°58'0 0.0
2017-Dec-10 11:10N 33°57' E 130°58'0 0.0
2017-Dec-10 11:01N 33°57' E 130°58'3 5.1
2017-Dec-10 10:31N 33°58' E 131°00'2 4.0
2017-Dec-10 10:00N 33°57' E 131°03'4 8.1
2017-Dec-10 09:30N 33°57' E 130°58'0 0.0
2017-Dec-10 09:00N 33°57' E 130°58'0 0.0
2017-Dec-10 08:31N 33°57' E 130°58'0 0.0
2017-Dec-10 08:00N 33°57' E 130°58'0 0.0
2017-Dec-10 07:31N 33°57' E 130°58'0 0.0
2017-Dec-10 07:00N 33°57' E 130°58'0 0.0
2017-Dec-10 06:30N 33°57' E 130°58'0 0.0
2017-Dec-10 06:01N 33°57' E 130°58'0 0.0
2017-Dec-10 05:31N 33°57' E 130°58'0 0.0
2017-Dec-10 05:01N 33°57' E 130°58'0 0.0
2017-Dec-10 04:31N 33°57' E 130°58'0 0.0
2017-Dec-10 04:00N 33°57' E 130°58'0 0.0
2017-Dec-10 03:31N 33°57' E 130°58'0 0.5
2017-Dec-10 03:01N 33°57' E 130°58'1 2.3
2017-Dec-10 02:30N 33°58' E 130°59'1 2.4
2017-Dec-10 02:01N 33°58' E 131°00'0 0.5
2017-Dec-10 01:31N 33°58' E 130°60'2 3.9
2017-Dec-10 01:00N 33°58' E 130°58'1 1.4
2017-Dec-10 00:31N 33°57' E 130°58'0 0.0
2017-Dec-10 00:00N 33°57' E 130°58'0 0.0
2017-Dec-09 23:30N 33°57' E 130°58'0 0.0
2017-Dec-09 23:01N 33°57' E 130°58'0 0.0
2017-Dec-09 05:16N 33°57' E 130°58'0 0.8
2017-Dec-09 05:00N 33°57' E 130°58'3 5.0
2017-Dec-09 04:30N 33°58' E 131°00'2 3.5
2017-Dec-09 04:01N 33°57' E 131°02'2 3.9
2017-Dec-09 03:31N 33°58' E 131°00'0 0.0
2017-Dec-09 03:00N 33°58' E 131°00'0 0.0
2017-Dec-09 02:31N 33°58' E 131°00'0 0.0
2017-Dec-09 02:01N 33°58' E 131°00'0 0.0
2017-Dec-09 01:31N 33°58' E 131°00'3 6.9
2017-Dec-09 01:01N 33°56' E 130°57'0 0.1
2017-Dec-09 00:31N 33°56' E 130°57'0 0.4
2017-Dec-09 00:01N 33°57' E 130°57'2 3.4
2017-Dec-08 23:31N 33°58' E 130°58'2 3.6
2017-Dec-08 23:01N 33°58' E 131°00'2 4.0
2017-Dec-08 22:31N 33°58' E 130°58'1 2.0
2017-Dec-08 22:00N 33°57' E 130°58'0 0.0
2017-Dec-08 07:19N 33°57' E 130°58'0 0.0
2017-Dec-08 07:00N 33°57' E 130°58'0 0.0
2017-Dec-08 06:31N 33°57' E 130°58'0 0.0
2017-Dec-08 06:01N 33°57' E 130°58'0 0.0
2017-Dec-08 05:30N 33°57' E 130°58'0 0.0
2017-Dec-08 05:00N 33°57' E 130°58'3 5.0
2017-Dec-08 04:31N 33°58' E 131°00'0 0.8
2017-Dec-08 04:00N 33°58' E 131°01'1 2.2
2017-Dec-08 03:31N 33°58' E 131°02'2 4.4
2017-Dec-08 03:01N 33°58' E 130°59'1 2.2
2017-Dec-08 02:30N 33°58' E 131°01'0 0.0
2017-Dec-08 02:00N 33°58' E 131°01'0 0.0
2017-Dec-08 01:30N 33°58' E 131°01'0 0.0
2017-Dec-08 01:00N 33°58' E 131°01'0 0.0
2017-Dec-08 00:30N 33°58' E 131°01'0 0.0
2017-Dec-08 00:00N 33°58' E 131°01'1 2.9
2017-Dec-07 23:30N 33°58' E 130°59'1 2.9
2017-Dec-07 23:00N 33°57' E 130°57'1 1.2
2017-Dec-07 22:30N 33°57' E 130°58'0 0.0
2017-Dec-07 12:35N 33°57' E 130°58'0 0.0
2017-Dec-07 12:30N 33°57' E 130°58'3 5.2
2017-Dec-07 12:00N 33°58' E 131°00'0 0.4
2017-Dec-07 11:30N 33°58' E 131°00'1 2.6
2017-Dec-07 11:00N 33°58' E 130°59'1 3.0
2017-Dec-07 10:30N 33°57' E 130°58'0 0.0
2017-Dec-07 10:00N 33°57' E 130°58'0 0.0
2017-Dec-07 09:30N 33°57' E 130°58'0 0.0
2017-Dec-07 09:00N 33°57' E 130°58'0 0.0
2017-Dec-07 08:30N 33°57' E 130°58'0 0.0
2017-Dec-07 08:00N 33°57' E 130°58'0 0.0
2017-Dec-07 07:30N 33°57' E 130°58'0 0.0
2017-Dec-07 07:00N 33°57' E 130°58'0 0.0
2017-Dec-07 06:30N 33°57' E 130°58'0 0.0
2017-Dec-07 06:00N 33°57' E 130°58'0 0.0
2017-Dec-07 05:30N 33°57' E 130°58'0 0.0
2017-Dec-07 05:00N 33°57' E 130°58'0 0.0
2017-Dec-07 04:30N 33°57' E 130°58'  
Track history (hours):
 
Tides and Currents Weather Stations Pressure Air Temp Water Temp Dewpoint Dewpoint Depression Visibility Wind Speed Wind Dir Waves Ship Positions

Eishun

Last reported at 2017-Dec-17 04:00 UTC. Time now 2017-Dec-17 04:21 UTC.
Position N 33°58' E 130°59'.

Length 40 m; draft 4.2 m.

Type: Tug. MMSI: 431602341.

Date/timePositionNaut miles runAvg speedWind from/ knotsBaromVisibWave heightAir tempDewpointWater temp
2017-Dec-17 04:00N 33°58' E 130°59'0 0.2
2017-Dec-17 03:30N 33°58' E 130°59'1 2.6
2017-Dec-17 03:00N 33°58' E 131°00'0 0.5
2017-Dec-17 02:30N 33°58' E 131°00'2 3.5
2017-Dec-17 02:00N 33°58' E 130°58'2 4.4
2017-Dec-17 01:30N 33°56' E 130°56'1 2.8
2017-Dec-17 01:00N 33°57' E 130°58'0 0.0
2017-Dec-17 00:30N 33°57' E 130°58'0 0.0
2017-Dec-17 00:00N 33°57' E 130°58'0 0.0
2017-Dec-16 23:30N 33°57' E 130°58'3 5.0
2017-Dec-16 23:01N 33°58' E 131°00'1 1.5
2017-Dec-16 22:30N 33°58' E 131°01'3 5.1
2017-Dec-16 22:00N 33°58' E 130°58'1 0.1
2017-Dec-16 02:45N 33°57' E 130°58'1 3.9
2017-Dec-16 02:30N 33°58' E 130°58'1 1.3
2017-Dec-16 02:00N 33°58' E 130°59'1 2.4
2017-Dec-16 01:30N 33°57' E 130°57'0 0.6
2017-Dec-16 01:00N 33°57' E 130°58'0 0.0
2017-Dec-16 00:30N 33°57' E 130°58'0 0.0
2017-Dec-16 00:00N 33°57' E 130°58'2 5.0
2017-Dec-15 23:31N 33°58' E 131°00'2 3.0
2017-Dec-15 23:00N 33°58' E 130°58'1 0.1
2017-Dec-15 08:54N 33°57' E 130°58'3 6.4
2017-Dec-15 08:30N 33°58' E 131°00'2 4.8
2017-Dec-15 08:00N 33°57' E 130°58'1 1.1
2017-Dec-15 07:30N 33°57' E 130°58'0 0.0
2017-Dec-15 02:30N 33°57' E 130°58'0 0.0
2017-Dec-15 01:00N 33°57' E 130°58'1 2.2
2017-Dec-15 00:31N 33°56' E 130°57'1 0.1
2017-Dec-14 07:16N 33°57' E 130°58'0 0.0
2017-Dec-14 07:00N 33°57' E 130°58'0 0.0
2017-Dec-14 06:30N 33°57' E 130°58'0 0.0
2017-Dec-14 06:00N 33°57' E 130°58'0 0.0
2017-Dec-14 05:30N 33°57' E 130°58'0 0.0
2017-Dec-14 05:00N 33°57' E 130°58'3 5.0
2017-Dec-14 04:30N 33°58' E 131°00'0 0.7
2017-Dec-14 04:00N 33°58' E 131°01'1 2.5
2017-Dec-14 03:31N 33°57' E 131°02'3 5.8
2017-Dec-14 03:00N 33°58' E 130°58'1 2.7
2017-Dec-14 02:30N 33°57' E 130°58'0 0.0
2017-Dec-14 02:00N 33°57' E 130°58'0 0.0
2017-Dec-14 01:30N 33°57' E 130°58'0 0.0
2017-Dec-14 01:00N 33°57' E 130°58'0 0.0
2017-Dec-14 00:30N 33°57' E 130°58'0 0.0
2017-Dec-14 00:00N 33°57' E 130°58'0 0.0
2017-Dec-13 23:30N 33°57' E 130°58'0 0.0
2017-Dec-13 23:00N 33°57' E 130°58'0 0.0
2017-Dec-13 09:53N 33°57' E 130°58'2 5.0
2017-Dec-13 09:31N 33°58' E 130°59'1 1.6
2017-Dec-13 09:00N 33°58' E 130°58'1 2.1
2017-Dec-13 08:30N 33°57' E 130°58'0 0.0
2017-Dec-13 08:00N 33°57' E 130°58'0 0.0
2017-Dec-13 07:30N 33°57' E 130°58'0 0.0
2017-Dec-13 07:01N 33°57' E 130°58'0 0.0
2017-Dec-13 06:30N 33°57' E 130°58'0 0.0
2017-Dec-13 06:00N 33°57' E 130°58'0 0.0
2017-Dec-13 05:31N 33°57' E 130°58'0 0.0
2017-Dec-13 05:00N 33°57' E 130°58'0 0.0
2017-Dec-13 04:30N 33°57' E 130°58'0 0.0
2017-Dec-13 04:01N 33°57' E 130°58'0 0.0
2017-Dec-13 03:30N 33°57' E 130°58'0 0.0
2017-Dec-13 03:00N 33°57' E 130°58'0 0.0
2017-Dec-13 02:30N 33°57' E 130°58'0 0.0
2017-Dec-13 02:00N 33°57' E 130°58'0 0.0
2017-Dec-13 01:30N 33°57' E 130°58'0 0.0
2017-Dec-13 01:01N 33°57' E 130°58'1 2.2
2017-Dec-13 00:30N 33°56' E 130°57'0 0.8
2017-Dec-13 00:00N 33°56' E 130°56'0 1.0
2017-Dec-12 23:30N 33°56' E 130°57'0 0.0
2017-Dec-12 23:00N 33°56' E 130°57'1 1.2
2017-Dec-12 22:30N 33°57' E 130°57'2 3.2
2017-Dec-12 22:00N 33°58' E 130°58'1 2.7
2017-Dec-12 21:31N 33°58' E 131°00'2 4.8
2017-Dec-12 21:00N 33°57' E 130°58'0 0.0
2017-Dec-11 12:11N 33°57' E 130°58'0 0.0
2017-Dec-11 12:01N 33°57' E 130°58'1 1.4
2017-Dec-11 11:30N 33°57' E 130°57'1 0.2
2017-Dec-11 07:18N 33°57' E 130°58'0 0.0
2017-Dec-11 07:00N 33°57' E 130°58'0 0.0
2017-Dec-11 06:31N 33°57' E 130°58'0 0.0
2017-Dec-11 06:01N 33°57' E 130°58'0 0.0
2017-Dec-11 05:31N 33°57' E 130°58'0 0.0
2017-Dec-11 05:01N 33°57' E 130°58'0 0.0
2017-Dec-11 04:31N 33°57' E 130°58'0 0.0
2017-Dec-11 04:00N 33°57' E 130°58'0 0.0
2017-Dec-11 03:31N 33°57' E 130°58'0 0.0
2017-Dec-11 03:01N 33°57' E 130°58'0 0.0
2017-Dec-11 02:30N 33°57' E 130°58'0 0.0
2017-Dec-11 02:01N 33°57' E 130°58'3 5.2
2017-Dec-11 01:31N 33°58' E 131°00'0 0.6
2017-Dec-11 01:01N 33°58' E 131°01'0 0.3
2017-Dec-11 00:30N 33°58' E 131°00'0 0.5
2017-Dec-11 00:01N 33°58' E 131°01'0 0.0
2017-Dec-10 23:30N 33°58' E 131°01'1 1.0
2017-Dec-10 23:00N 33°58' E 131°00'1 2.0
2017-Dec-10 22:30N 33°58' E 130°59'2 3.5
2017-Dec-10 22:01N 33°57' E 130°58'0 0.0
2017-Dec-10 11:10N 33°57' E 130°58'0 0.0
2017-Dec-10 11:01N 33°57' E 130°58'3 5.1
2017-Dec-10 10:31N 33°58' E 131°00'2 4.0
2017-Dec-10 10:00N 33°57' E 131°03'4 8.1
2017-Dec-10 09:30N 33°57' E 130°58'0 0.0
2017-Dec-10 09:00N 33°57' E 130°58'0 0.0
2017-Dec-10 08:31N 33°57' E 130°58'0 0.0
2017-Dec-10 08:00N 33°57' E 130°58'0 0.0
2017-Dec-10 07:31N 33°57' E 130°58'0 0.0
2017-Dec-10 07:00N 33°57' E 130°58'0 0.0
2017-Dec-10 06:30N 33°57' E 130°58'0 0.0
2017-Dec-10 06:01N 33°57' E 130°58'0 0.0
2017-Dec-10 05:31N 33°57' E 130°58'0 0.0
2017-Dec-10 05:01N 33°57' E 130°58'0 0.0
2017-Dec-10 04:31N 33°57' E 130°58'0 0.0
2017-Dec-10 04:00N 33°57' E 130°58'0 0.0
2017-Dec-10 03:31N 33°57' E 130°58'0 0.5
2017-Dec-10 03:01N 33°57' E 130°58'1 2.3
2017-Dec-10 02:30N 33°58' E 130°59'1 2.4
2017-Dec-10 02:01N 33°58' E 131°00'0 0.5
2017-Dec-10 01:31N 33°58' E 130°60'2 3.9
2017-Dec-10 01:00N 33°58' E 130°58'1 1.4
2017-Dec-10 00:31N 33°57' E 130°58'0 0.0
2017-Dec-10 00:00N 33°57' E 130°58'0 0.0
2017-Dec-09 23:30N 33°57' E 130°58'0 0.0
2017-Dec-09 23:01N 33°57' E 130°58'0 0.0
2017-Dec-09 05:16N 33°57' E 130°58'0 0.8
2017-Dec-09 05:00N 33°57' E 130°58'3 5.0
2017-Dec-09 04:30N 33°58' E 131°00'2 3.5
2017-Dec-09 04:01N 33°57' E 131°02'2 3.9
2017-Dec-09 03:31N 33°58' E 131°00'0 0.0
2017-Dec-09 03:00N 33°58' E 131°00'0 0.0
2017-Dec-09 02:31N 33°58' E 131°00'0 0.0
2017-Dec-09 02:01N 33°58' E 131°00'0 0.0
2017-Dec-09 01:31N 33°58' E 131°00'3 6.9
2017-Dec-09 01:01N 33°56' E 130°57'0 0.1
2017-Dec-09 00:31N 33°56' E 130°57'0 0.4
2017-Dec-09 00:01N 33°57' E 130°57'2 3.4
2017-Dec-08 23:31N 33°58' E 130°58'2 3.6
2017-Dec-08 23:01N 33°58' E 131°00'2 4.0
2017-Dec-08 22:31N 33°58' E 130°58'1 2.0
2017-Dec-08 22:00N 33°57' E 130°58'0 0.0
2017-Dec-08 07:19N 33°57' E 130°58'0 0.0
2017-Dec-08 07:00N 33°57' E 130°58'0 0.0
2017-Dec-08 06:31N 33°57' E 130°58'0 0.0
2017-Dec-08 06:01N 33°57' E 130°58'0 0.0
2017-Dec-08 05:30N 33°57' E 130°58'0 0.0
2017-Dec-08 05:00N 33°57' E 130°58'3 5.0
2017-Dec-08 04:31N 33°58' E 131°00'0 0.8
2017-Dec-08 04:00N 33°58' E 131°01'1 2.2
2017-Dec-08 03:31N 33°58' E 131°02'2 4.4
2017-Dec-08 03:01N 33°58' E 130°59'1 2.2
2017-Dec-08 02:30N 33°58' E 131°01'0 0.0
2017-Dec-08 02:00N 33°58' E 131°01'0 0.0
2017-Dec-08 01:30N 33°58' E 131°01'0 0.0
2017-Dec-08 01:00N 33°58' E 131°01'0 0.0
2017-Dec-08 00:30N 33°58' E 131°01'0 0.0
2017-Dec-08 00:00N 33°58' E 131°01'1 2.9
2017-Dec-07 23:30N 33°58' E 130°59'1 2.9
2017-Dec-07 23:00N 33°57' E 130°57'1 1.2
2017-Dec-07 22:30N 33°57' E 130°58'0 0.0
2017-Dec-07 12:35N 33°57' E 130°58'0 0.0
2017-Dec-07 12:30N 33°57' E 130°58'3 5.2
2017-Dec-07 12:00N 33°58' E 131°00'0 0.4
2017-Dec-07 11:30N 33°58' E 131°00'1 2.6
2017-Dec-07 11:00N 33°58' E 130°59'1 3.0
2017-Dec-07 10:30N 33°57' E 130°58'0 0.0
2017-Dec-07 10:00N 33°57' E 130°58'0 0.0
2017-Dec-07 09:30N 33°57' E 130°58'0 0.0
2017-Dec-07 09:00N 33°57' E 130°58'0 0.0
2017-Dec-07 08:30N 33°57' E 130°58'0 0.0
2017-Dec-07 08:00N 33°57' E 130°58'0 0.0
2017-Dec-07 07:30N 33°57' E 130°58'0 0.0
2017-Dec-07 07:00N 33°57' E 130°58'0 0.0
2017-Dec-07 06:30N 33°57' E 130°58'0 0.0
2017-Dec-07 06:00N 33°57' E 130°58'0 0.0
2017-Dec-07 05:30N 33°57' E 130°58'0 0.0
2017-Dec-07 05:00N 33°57' E 130°58'0 0.0
2017-Dec-07 04:30N 33°57' E 130°58'  

Dump ship's entire track history